createdAt,value
2022-09-09T00:01:47.088Z,100.00
2022-09-09T00:04:22.064Z,100.00
2022-09-09T00:07:14.786Z,100.00
2022-09-09T00:09:50.291Z,100.00
2022-09-09T00:12:38.039Z,100.00
2022-09-09T00:15:20.487Z,100.00
2022-09-09T00:17:50.180Z,100.00
2022-09-09T00:20:34.891Z,100.00
2022-09-09T00:23:12.127Z,100.00
2022-09-09T00:25:52.585Z,100.00
2022-09-09T00:28:25.600Z,100.00
2022-09-09T00:30:52.494Z,100.00
2022-09-09T00:33:23.873Z,100.00
2022-09-09T00:35:58.753Z,100.00
2022-09-09T00:38:41.651Z,100.00
2022-09-09T00:41:31.632Z,100.00
2022-09-09T00:44:36.275Z,100.00
2022-09-09T00:47:26.283Z,100.00
2022-09-09T00:50:02.462Z,100.00
2022-09-09T00:53:08.137Z,100.00
2022-09-09T00:56:12.507Z,100.00
2022-09-09T00:58:39.632Z,100.00
2022-09-09T01:01:14.230Z,100.00
2022-09-09T01:03:54.367Z,100.00
2022-09-09T01:06:40.274Z,100.00
2022-09-09T01:09:33.224Z,100.00
2022-09-09T01:12:06.131Z,100.00
2022-09-09T01:14:36.041Z,100.00
2022-09-09T01:17:13.440Z,100.00
2022-09-09T01:19:43.482Z,100.00
2022-09-09T01:22:46.286Z,100.00
2022-09-09T01:25:19.990Z,100.00
2022-09-09T01:27:50.907Z,100.00
2022-09-09T01:30:19.356Z,100.00
2022-09-09T01:32:50.777Z,100.00
2022-09-09T01:35:20.215Z,100.00
2022-09-09T01:37:47.247Z,100.00
2022-09-09T01:40:14.087Z,100.00
2022-09-09T01:42:40.842Z,100.00
2022-09-09T01:45:08.393Z,100.00
2022-09-09T01:47:36.695Z,100.00
2022-09-09T01:50:04.108Z,100.00
2022-09-09T01:52:40.551Z,100.00
2022-09-09T01:55:08.392Z,100.00
2022-09-09T01:57:59.187Z,100.00
2022-09-09T02:00:26.301Z,100.00
2022-09-09T02:03:06.467Z,100.00
2022-09-09T02:05:42.728Z,100.00
2022-09-09T02:08:19.856Z,100.00
2022-09-09T02:11:07.691Z,100.00
2022-09-09T02:13:38.763Z,100.00
2022-09-09T02:16:09.772Z,100.00
2022-09-09T02:18:42.103Z,100.00
2022-09-09T02:21:12.724Z,100.00
2022-09-09T02:23:42.179Z,100.00
2022-09-09T02:26:11.455Z,100.00
2022-09-09T02:28:40.317Z,100.00
2022-09-09T02:31:07.573Z,100.00
2022-09-09T02:33:48.816Z,100.00
2022-09-09T02:36:17.278Z,100.00
2022-09-09T02:38:51.580Z,100.00
2022-09-09T02:41:23.998Z,100.00
2022-09-09T02:43:50.929Z,100.00
2022-09-09T02:46:43.927Z,100.00
2022-09-09T02:49:19.860Z,100.00
2022-09-09T02:52:00.258Z,100.00
2022-09-09T02:54:32.197Z,100.00
2022-09-09T02:57:11.528Z,100.00
2022-09-09T02:59:39.940Z,100.00
2022-09-09T03:02:07.188Z,100.00
2022-09-09T03:04:34.190Z,100.00
2022-09-09T03:07:01.170Z,100.00
2022-09-09T03:09:27.967Z,100.00
2022-09-09T03:11:56.024Z,100.00
2022-09-09T03:14:26.239Z,100.00
2022-09-09T03:16:54.450Z,100.00
2022-09-09T03:19:22.052Z,100.00
2022-09-09T03:21:49.244Z,100.00
2022-09-09T03:24:16.317Z,100.00
2022-09-09T03:26:45.754Z,100.00
2022-09-09T03:29:13.719Z,100.00
2022-09-09T03:31:40.908Z,100.00
2022-09-09T03:34:08.160Z,100.00
2022-09-09T03:36:35.601Z,100.00
2022-09-09T03:39:03.974Z,100.00
2022-09-09T03:41:31.215Z,100.00
2022-09-09T03:43:58.142Z,100.00
2022-09-09T03:46:26.507Z,100.00
2022-09-09T03:48:54.044Z,100.00
2022-09-09T03:51:22.663Z,100.00
2022-09-09T03:53:50.057Z,100.00
2022-09-09T03:56:17.219Z,100.00
2022-09-09T03:58:44.767Z,100.00
2022-09-09T04:01:18.851Z,100.00
2022-09-09T04:03:46.412Z,100.00
2022-09-09T04:06:15.565Z,100.00
2022-09-09T04:08:42.777Z,100.00
2022-09-09T04:11:10.745Z,100.00
2022-09-09T04:13:40.811Z,100.00
2022-09-09T04:16:12.678Z,100.00
2022-09-09T04:18:40.029Z,100.00
2022-09-09T04:21:07.997Z,100.00
2022-09-09T04:23:35.800Z,100.00
2022-09-09T04:26:04.958Z,100.00
2022-09-09T04:28:34.938Z,100.00
2022-09-09T04:31:10.527Z,100.00
2022-09-09T04:33:40.279Z,100.00
2022-09-09T04:36:08.179Z,100.00
2022-09-09T04:38:34.936Z,100.00
2022-09-09T04:41:03.548Z,100.00
2022-09-09T04:43:31.793Z,100.00
2022-09-09T04:46:00.335Z,100.00
2022-09-09T04:48:28.357Z,100.00
2022-09-09T04:50:56.755Z,100.00
2022-09-09T04:53:24.263Z,100.00
2022-09-09T04:55:51.181Z,100.00
2022-09-09T04:58:18.232Z,100.00
2022-09-09T05:00:45.051Z,100.00
2022-09-09T05:03:13.639Z,100.00
2022-09-09T05:05:40.498Z,100.00
2022-09-09T05:08:09.930Z,100.00
2022-09-09T05:10:39.691Z,100.00
2022-09-09T05:13:07.636Z,100.00
2022-09-09T05:15:34.793Z,100.00
2022-09-09T05:18:02.333Z,100.00
2022-09-09T05:20:29.427Z,100.00
2022-09-09T05:22:57.521Z,100.00
2022-09-09T05:25:27.005Z,100.00
2022-09-09T05:27:54.832Z,100.00
2022-09-09T05:30:24.248Z,100.00
2022-09-09T05:32:51.279Z,100.00
2022-09-09T05:35:20.079Z,100.00
2022-09-09T05:37:47.164Z,100.00
2022-09-09T05:40:14.463Z,100.00
2022-09-09T05:42:41.844Z,100.00
2022-09-09T05:45:09.698Z,100.00
2022-09-09T05:47:38.238Z,100.00
2022-09-09T05:50:05.536Z,100.00
2022-09-09T05:52:32.889Z,100.00
2022-09-09T05:55:00.707Z,100.00
2022-09-09T05:57:27.627Z,100.00
2022-09-09T05:59:54.735Z,100.00
2022-09-09T06:02:21.852Z,100.00
2022-09-09T06:04:48.732Z,100.00
2022-09-09T06:07:15.653Z,100.00
2022-09-09T06:09:42.569Z,100.00
2022-09-09T06:12:09.955Z,100.00
2022-09-09T06:14:37.876Z,99.06
2022-09-09T06:17:05.012Z,99.05
2022-09-09T06:19:32.019Z,98.96
2022-09-09T06:21:59.563Z,97.36
2022-09-09T06:24:26.570Z,95.38
2022-09-09T06:26:53.347Z,95.68
2022-09-09T06:29:20.097Z,95.75
2022-09-09T06:31:47.204Z,94.13
2022-09-09T06:34:14.218Z,93.38
2022-09-09T06:36:41.334Z,91.09
2022-09-09T06:39:14.234Z,91.15
2022-09-09T06:41:43.526Z,90.18
2022-09-09T06:44:12.866Z,89.50
2022-09-09T06:46:40.826Z,90.43
2022-09-09T06:49:09.349Z,89.85
2022-09-09T06:51:43.574Z,88.51
2022-09-09T06:54:11.822Z,89.66
2022-09-09T06:56:44.000Z,87.79
2022-09-09T06:59:13.086Z,87.43
2022-09-09T07:01:42.211Z,86.95
2022-09-09T07:04:09.968Z,87.18
2022-09-09T07:06:39.296Z,86.79
2022-09-09T07:09:09.446Z,87.64
2022-09-09T07:11:42.687Z,87.44
2022-09-09T07:14:09.976Z,88.50
2022-09-09T07:16:38.207Z,85.99
2022-09-09T07:19:05.609Z,87.37
2022-09-09T07:21:34.354Z,87.20
2022-09-09T07:24:01.468Z,88.30
2022-09-09T07:26:30.957Z,88.54
2022-09-09T07:28:58.547Z,87.98
2022-09-09T07:31:33.699Z,86.72
2022-09-09T07:34:01.938Z,85.51
2022-09-09T07:36:33.429Z,85.89
2022-09-09T07:39:12.294Z,83.29
2022-09-09T07:41:42.097Z,80.59
2022-09-09T07:44:12.548Z,79.70
2022-09-09T07:46:40.795Z,80.64
2022-09-09T07:49:08.556Z,80.83
2022-09-09T07:51:37.852Z,77.97
2022-09-09T07:54:08.012Z,78.80
2022-09-09T07:56:35.276Z,75.43
2022-09-09T07:59:02.321Z,76.44
2022-09-09T08:01:33.609Z,74.29
2022-09-09T08:04:03.290Z,76.36
2022-09-09T08:06:36.454Z,74.13
2022-09-09T08:09:04.872Z,73.34
2022-09-09T08:11:38.573Z,72.79
2022-09-09T08:14:07.120Z,70.57
2022-09-09T08:16:37.454Z,69.95
2022-09-09T08:19:05.096Z,71.18
2022-09-09T08:21:34.145Z,70.56
2022-09-09T08:24:02.499Z,69.89
2022-09-09T08:26:35.716Z,66.94
2022-09-09T08:29:04.518Z,68.15
2022-09-09T08:31:43.636Z,66.92
2022-09-09T08:34:11.577Z,66.92
2022-09-09T08:36:44.752Z,65.87
2022-09-09T08:39:14.524Z,65.50
2022-09-09T08:41:59.395Z,64.02
2022-09-09T08:44:35.116Z,62.43
2022-09-09T08:47:13.790Z,63.12
2022-09-09T08:50:25.584Z,62.15
2022-09-09T08:53:05.275Z,60.96
2022-09-09T08:55:50.150Z,60.79
2022-09-09T08:58:34.101Z,61.04
2022-09-09T09:01:27.850Z,61.65
2022-09-09T09:04:14.553Z,61.21
2022-09-09T09:07:03.584Z,58.56
2022-09-09T09:09:33.114Z,58.64
2022-09-09T09:12:03.300Z,57.83
2022-09-09T09:14:35.161Z,60.54
2022-09-09T09:17:34.220Z,59.02
2022-09-09T09:20:01.115Z,55.62
2022-09-09T09:22:45.471Z,56.46
2022-09-09T09:25:18.954Z,57.59
2022-09-09T09:28:07.027Z,55.36
2022-09-09T09:30:43.622Z,54.92
2022-09-09T09:33:36.272Z,55.91
2022-09-09T09:36:04.228Z,57.51
2022-09-09T09:41:19.382Z,55.62
2022-09-09T09:43:55.421Z,54.18
2022-09-09T09:46:25.255Z,54.00
2022-09-09T09:49:06.683Z,54.45
2022-09-09T09:51:34.974Z,53.85
2022-09-09T09:54:29.912Z,52.24
2022-09-09T09:56:57.220Z,51.39
2022-09-09T09:59:39.744Z,54.15
2022-09-09T10:02:28.187Z,54.06
2022-09-09T10:05:06.608Z,51.09
2022-09-09T10:07:34.353Z,49.20
2022-09-09T10:10:04.471Z,50.61
2022-09-09T10:12:52.138Z,50.65
2022-09-09T10:15:43.603Z,51.14
2022-09-09T10:18:28.788Z,49.39
2022-09-09T10:21:11.118Z,52.09
2022-09-09T10:23:37.896Z,50.26
2022-09-09T10:26:38.747Z,47.28
2022-09-09T10:29:49.786Z,46.04
2022-09-09T10:32:32.234Z,45.55
2022-09-09T10:35:08.156Z,44.70
2022-09-09T10:37:49.581Z,44.55
2022-09-09T10:40:26.849Z,44.48
2022-09-09T10:43:02.332Z,44.92
2022-09-09T10:45:39.848Z,43.23
2022-09-09T10:48:40.931Z,42.95
2022-09-09T10:51:19.584Z,42.56
2022-09-09T10:53:58.185Z,44.11
2022-09-09T10:56:26.499Z,41.70
2022-09-09T10:59:08.455Z,42.18
2022-09-09T11:01:40.653Z,40.86
2022-09-09T11:04:19.583Z,43.30
2022-09-09T11:06:53.362Z,42.69
2022-09-09T11:09:29.715Z,41.61
2022-09-09T11:11:58.577Z,42.70
2022-09-09T11:14:40.359Z,43.03
2022-09-09T11:17:33.429Z,41.75
2022-09-09T11:20:00.404Z,39.59
2022-09-09T11:22:41.792Z,39.06
2022-09-09T11:25:14.927Z,40.17
2022-09-09T11:28:20.357Z,40.86
2022-09-09T11:31:23.419Z,41.26
2022-09-09T11:34:40.113Z,38.06
2022-09-09T11:37:45.397Z,37.75
2022-09-09T11:40:24.503Z,37.88
2022-09-09T11:43:06.969Z,38.21
2022-09-09T11:45:36.465Z,40.37
2022-09-09T11:48:04.841Z,38.53
2022-09-09T11:50:38.826Z,40.03
2022-09-09T11:53:26.325Z,41.05
2022-09-09T11:56:04.792Z,38.66
2022-09-09T11:58:41.641Z,38.60
2022-09-09T12:01:16.555Z,38.33
2022-09-09T12:03:52.470Z,40.05
2022-09-09T12:06:28.712Z,38.80
2022-09-09T12:09:06.215Z,37.27
2022-09-09T12:11:32.985Z,36.22
2022-09-09T12:14:04.200Z,35.78
2022-09-09T12:16:34.263Z,36.48
2022-09-09T12:19:05.514Z,35.45
2022-09-09T12:21:55.195Z,38.38
2022-09-09T12:24:37.642Z,38.13
2022-09-09T12:27:20.704Z,37.34
2022-09-09T12:30:10.545Z,36.78
2022-09-09T12:32:38.469Z,36.76
2022-09-09T12:35:14.108Z,37.88
2022-09-09T12:37:51.118Z,36.21
2022-09-09T12:40:26.919Z,32.44
2022-09-09T12:42:54.939Z,32.14
2022-09-09T12:45:28.072Z,32.27
2022-09-09T12:47:57.253Z,31.02
2022-09-09T12:50:27.535Z,28.90
2022-09-09T12:53:00.626Z,29.21
2022-09-09T12:55:36.083Z,27.83
2022-09-09T12:58:07.329Z,27.38
2022-09-09T13:00:35.856Z,28.83
2022-09-09T13:03:18.690Z,28.33
2022-09-09T13:05:47.770Z,26.83
2022-09-09T13:08:15.649Z,27.38
2022-09-09T13:10:56.328Z,26.28
2022-09-09T13:13:28.413Z,25.72
2022-09-09T13:16:00.125Z,27.33
2022-09-09T13:18:32.983Z,25.69
2022-09-09T13:21:00.802Z,24.52
2022-09-09T13:23:30.639Z,25.91
2022-09-09T13:26:05.057Z,26.93
2022-09-09T13:28:33.615Z,26.68
2022-09-09T13:31:04.293Z,30.08
2022-09-09T13:33:41.060Z,32.21
2022-09-09T13:36:10.279Z,35.46
2022-09-09T13:38:55.863Z,35.51
2022-09-09T13:41:25.142Z,35.90
2022-09-09T13:43:53.159Z,35.76
2022-09-09T13:46:36.779Z,38.47
2022-09-09T13:49:12.390Z,37.32
2022-09-09T13:51:40.331Z,38.36
2022-09-09T13:54:10.972Z,37.76
2022-09-09T13:56:39.732Z,37.18
2022-09-09T13:59:10.619Z,37.43
2022-09-09T14:01:39.993Z,42.89
2022-09-09T14:04:07.623Z,37.78
2022-09-09T14:06:39.194Z,36.10
2022-09-09T14:09:07.824Z,37.50
2022-09-09T14:11:34.545Z,39.25
2022-09-09T14:14:01.945Z,37.75
2022-09-09T14:16:29.143Z,37.89
2022-09-09T14:19:00.223Z,38.86
2022-09-09T14:21:28.427Z,40.11
2022-09-09T14:23:55.888Z,42.72
2022-09-09T14:26:23.348Z,40.66
2022-09-09T14:28:55.205Z,40.82
2022-09-09T14:31:24.564Z,42.30
2022-09-09T14:33:52.018Z,41.80
2022-09-09T14:36:19.344Z,42.13
2022-09-09T14:38:46.553Z,38.25
2022-09-09T14:41:19.134Z,36.61
2022-09-09T14:43:46.587Z,33.29
2022-09-09T14:46:16.261Z,36.45
2022-09-09T14:48:43.274Z,34.87
2022-09-09T14:51:13.725Z,37.35
2022-09-09T14:53:41.558Z,38.16
2022-09-09T14:56:16.909Z,39.26
2022-09-09T14:58:44.870Z,40.04
2022-09-09T15:01:14.856Z,40.65
2022-09-09T15:03:44.363Z,41.38
2022-09-09T15:06:15.392Z,40.73
2022-09-09T15:08:44.160Z,41.11
2022-09-09T15:11:12.684Z,40.08
2022-09-09T15:13:41.971Z,39.20
2022-09-09T15:16:17.836Z,39.23
2022-09-09T15:18:46.362Z,40.34
2022-09-09T15:21:15.037Z,41.22
2022-09-09T15:23:42.415Z,40.44
2022-09-09T15:26:10.132Z,39.83
2022-09-09T15:28:39.224Z,41.95
2022-09-09T15:31:26.743Z,40.81
2022-09-09T15:34:01.603Z,37.40
2022-09-09T15:36:31.057Z,32.87
2022-09-09T15:38:58.564Z,31.91
2022-09-09T15:41:25.732Z,29.74
2022-09-09T15:43:55.656Z,26.99
2022-09-09T15:46:44.509Z,30.80
2022-09-09T15:49:12.405Z,33.05
2022-09-09T15:51:45.210Z,35.66
2022-09-09T15:54:21.853Z,36.33
2022-09-09T15:56:53.262Z,37.46
2022-09-09T15:59:20.091Z,40.21
2022-09-09T16:01:47.008Z,40.31
2022-09-09T16:04:14.177Z,42.45
2022-09-09T16:06:41.075Z,44.61
2022-09-09T16:09:08.614Z,45.97
2022-09-09T16:11:38.257Z,46.92
2022-09-09T16:14:06.395Z,48.11
2022-09-09T16:16:33.985Z,48.65
2022-09-09T16:19:05.412Z,49.45
2022-09-09T16:21:36.171Z,50.65
2022-09-09T16:24:07.788Z,51.14
2022-09-09T16:26:36.682Z,50.59
2022-09-09T16:29:04.092Z,52.12
2022-09-09T16:31:33.260Z,51.33
2022-09-09T16:34:00.358Z,52.07
2022-09-09T16:36:31.322Z,52.33
2022-09-09T16:39:01.018Z,53.26
2022-09-09T16:41:29.684Z,54.06
2022-09-09T16:44:03.382Z,54.95
2022-09-09T16:46:32.738Z,56.88
2022-09-09T16:49:01.310Z,57.77
2022-09-09T16:51:30.878Z,58.63
2022-09-09T16:54:00.437Z,57.88
2022-09-09T16:56:29.586Z,57.17
2022-09-09T16:59:02.133Z,59.09
2022-09-09T17:01:32.652Z,59.70
2022-09-09T17:04:04.608Z,60.12
2022-09-09T17:06:35.537Z,59.56
2022-09-09T17:09:05.553Z,59.50
2022-09-09T17:11:32.836Z,59.83
2022-09-09T17:13:59.630Z,60.64
2022-09-09T17:16:30.923Z,60.79
2022-09-09T17:18:59.699Z,61.05
2022-09-09T17:21:28.300Z,62.67
2022-09-09T17:23:56.095Z,62.92
2022-09-09T17:26:27.721Z,62.87
2022-09-09T17:28:59.491Z,64.77
2022-09-09T17:31:28.587Z,65.92
2022-09-09T17:33:55.874Z,65.66
2022-09-09T17:36:24.867Z,65.88
2022-09-09T17:38:52.911Z,66.70
2022-09-09T17:41:27.592Z,67.65
2022-09-09T17:43:55.578Z,69.58
2022-09-09T17:46:25.942Z,70.05
2022-09-09T17:48:57.235Z,70.78
2022-09-09T17:51:28.742Z,71.11
2022-09-09T17:53:59.357Z,73.01
2022-09-09T17:56:29.240Z,72.07
2022-09-09T17:58:55.989Z,71.75
2022-09-09T18:01:27.973Z,71.73
2022-09-09T18:03:58.874Z,72.45
2022-09-09T18:06:28.646Z,72.76
2022-09-09T18:08:57.676Z,73.24
2022-09-09T18:11:28.805Z,73.28
2022-09-09T18:14:00.515Z,74.04
2022-09-09T18:16:29.943Z,75.19
2022-09-09T18:19:00.845Z,74.17
2022-09-09T18:21:29.829Z,73.28
2022-09-09T18:23:56.771Z,71.60
2022-09-09T18:26:26.240Z,73.53
2022-09-09T18:29:01.477Z,72.41
2022-09-09T18:31:29.713Z,72.53
2022-09-09T18:34:00.320Z,72.83
2022-09-09T18:36:34.093Z,71.75
2022-09-09T18:39:03.568Z,74.43
2022-09-09T18:41:33.331Z,73.17
2022-09-09T18:44:03.980Z,73.65
2022-09-09T18:46:34.821Z,74.00
2022-09-09T18:49:02.484Z,72.85
2022-09-09T18:51:30.245Z,72.78
2022-09-09T18:54:00.628Z,72.95
2022-09-09T18:56:29.509Z,72.92
2022-09-09T18:59:01.412Z,72.49
2022-09-09T19:01:30.361Z,72.87
2022-09-09T19:03:57.536Z,72.01
2022-09-09T19:06:27.753Z,72.04
2022-09-09T19:09:03.305Z,72.59
2022-09-09T19:11:32.122Z,71.93
2022-09-09T19:14:01.728Z,71.93
2022-09-09T19:16:31.120Z,73.39
2022-09-09T19:19:01.181Z,73.07
2022-09-09T19:21:30.587Z,72.22
2022-09-09T19:24:27.986Z,71.88
2022-09-09T19:26:58.158Z,72.40
2022-09-09T19:29:26.911Z,72.48
2022-09-09T19:34:44.645Z,74.52
2022-09-09T19:37:16.356Z,75.33
2022-09-09T19:39:46.074Z,76.23
2022-09-09T19:42:12.913Z,76.89
2022-09-09T19:44:39.730Z,78.04
2022-09-09T19:47:07.364Z,79.56
2022-09-09T19:49:35.250Z,80.83
2022-09-09T19:52:02.471Z,82.23
2022-09-09T19:54:29.610Z,84.63
2022-09-09T19:56:56.672Z,85.78
2022-09-09T19:59:23.431Z,85.77
2022-09-09T20:01:51.462Z,86.54
2022-09-09T20:04:18.724Z,87.58
2022-09-09T20:06:45.482Z,87.83
2022-09-09T20:09:15.374Z,87.91
2022-09-09T20:11:43.567Z,89.05
2022-09-09T20:14:11.737Z,88.86
2022-09-09T20:16:39.835Z,89.29
2022-09-09T20:19:08.258Z,90.65
2022-09-09T20:21:38.390Z,90.60
2022-09-09T20:24:08.589Z,91.09
2022-09-09T20:26:37.588Z,91.22
2022-09-09T20:29:15.248Z,91.14
2022-09-09T20:31:43.987Z,91.26
2022-09-09T20:34:14.073Z,91.32
2022-09-09T20:36:42.002Z,91.36
2022-09-09T20:39:12.021Z,91.88
2022-09-09T20:41:40.339Z,93.29
2022-09-09T20:44:12.419Z,93.97
2022-09-09T20:46:43.048Z,95.19
2022-09-09T20:49:11.399Z,96.79
2022-09-09T20:51:38.816Z,94.73
2022-09-09T20:54:14.852Z,97.27
2022-09-09T20:56:43.233Z,98.35
2022-09-09T20:59:13.499Z,98.65
2022-09-09T21:01:40.845Z,100.00
2022-09-09T21:04:13.845Z,100.00
2022-09-09T21:06:40.963Z,100.00
2022-09-09T21:09:07.946Z,100.00
2022-09-09T21:11:35.145Z,100.00
2022-09-09T21:14:03.877Z,100.00
2022-09-09T21:16:31.422Z,100.00
2022-09-09T21:18:59.344Z,100.00
2022-09-09T21:21:28.807Z,100.00
2022-09-09T21:23:58.423Z,100.00
2022-09-09T21:26:26.086Z,100.00
2022-09-09T21:28:58.020Z,100.00
2022-09-09T21:31:27.865Z,100.00
2022-09-09T21:33:56.792Z,100.00
2022-09-09T21:36:24.254Z,100.00
2022-09-09T21:38:51.015Z,100.00
2022-09-09T21:41:18.169Z,100.00
2022-09-09T21:43:46.932Z,100.00
2022-09-09T21:46:16.896Z,100.00
2022-09-09T21:48:44.515Z,100.00
2022-09-09T21:51:14.908Z,100.00
2022-09-09T21:53:42.783Z,100.00
2022-09-09T21:56:19.028Z,100.00
2022-09-09T21:58:47.258Z,100.00
2022-09-09T22:01:18.741Z,100.00
2022-09-09T22:03:45.740Z,100.00
2022-09-09T22:06:15.032Z,100.00
2022-09-09T22:08:43.107Z,100.00
2022-09-09T22:11:15.799Z,100.00
2022-09-09T22:13:46.008Z,100.00
2022-09-09T22:16:15.610Z,100.00
2022-09-09T22:18:42.905Z,100.00
2022-09-09T22:21:15.201Z,100.00
2022-09-09T22:23:42.951Z,100.00
2022-09-09T22:26:10.183Z,100.00
2022-09-09T22:28:38.620Z,100.00
2022-09-09T22:31:06.300Z,100.00
2022-09-09T22:33:33.274Z,100.00
2022-09-09T22:36:00.276Z,100.00
2022-09-09T22:38:27.300Z,100.00
2022-09-09T22:40:54.685Z,100.00
2022-09-09T22:43:22.751Z,100.00
2022-09-09T22:45:51.002Z,100.00
2022-09-09T22:48:18.279Z,100.00
2022-09-09T22:50:46.663Z,100.00
2022-09-09T22:53:16.035Z,100.00
2022-09-09T22:55:43.712Z,100.00
2022-09-09T22:58:10.926Z,100.00
2022-09-09T23:00:40.846Z,100.00
2022-09-09T23:03:07.921Z,100.00
2022-09-09T23:05:38.628Z,100.00
2022-09-09T23:08:05.586Z,100.00
2022-09-09T23:10:33.451Z,100.00
2022-09-09T23:13:00.343Z,100.00
2022-09-09T23:15:28.368Z,100.00
2022-09-09T23:17:55.783Z,100.00
2022-09-09T23:20:24.015Z,100.00
2022-09-09T23:22:50.948Z,100.00
2022-09-09T23:25:17.794Z,100.00
2022-09-09T23:27:45.619Z,100.00
2022-09-09T23:30:13.032Z,100.00
2022-09-09T23:32:39.749Z,100.00
2022-09-09T23:35:07.526Z,100.00
2022-09-09T23:37:34.942Z,100.00
2022-09-09T23:40:01.983Z,100.00
2022-09-09T23:42:33.431Z,100.00
2022-09-09T23:45:00.444Z,100.00
2022-09-09T23:47:28.301Z,100.00
2022-09-09T23:49:55.052Z,100.00
2022-09-09T23:52:24.500Z,100.00
2022-09-09T23:54:51.438Z,100.00
2022-09-09T23:57:18.576Z,100.00
2022-09-09T23:59:45.510Z,100.00
